sensor_id;sensor_type;location;lat;lon;timestamp;P1;durP1;ratioP1;P2;durP2;ratioP2
54875;SDS011;40764;48.472;8.166;2023-02-28T00:00:03;7.33;;;3.23;;
54875;SDS011;40764;48.472;8.166;2023-02-28T00:06:10;5.25;;;2.85;;
54875;SDS011;40764;48.472;8.166;2023-02-28T00:12:10;11.37;;;2.97;;
54875;SDS011;40764;48.472;8.166;2023-02-28T00:18:11;5.13;;;2.65;;
54875;SDS011;40764;48.472;8.166;2023-02-28T00:24:12;10.13;;;2.93;;
54875;SDS011;40764;48.472;8.166;2023-02-28T00:30:13;4.90;;;2.40;;
54875;SDS011;40764;48.472;8.166;2023-02-28T00:36:17;21.80;;;3.70;;
54875;SDS011;40764;48.472;8.166;2023-02-28T00:42:17;5.80;;;3.10;;
54875;SDS011;40764;48.472;8.166;2023-02-28T00:48:17;6.63;;;3.35;;
54875;SDS011;40764;48.472;8.166;2023-02-28T00:54:18;10.80;;;3.45;;
54875;SDS011;40764;48.472;8.166;2023-02-28T01:00:19;9.27;;;3.58;;
54875;SDS011;40764;48.472;8.166;2023-02-28T01:06:19;7.30;;;3.60;;
54875;SDS011;40764;48.472;8.166;2023-02-28T01:12:19;6.38;;;3.00;;
54875;SDS011;40764;48.472;8.166;2023-02-28T01:18:20;10.40;;;3.28;;
54875;SDS011;40764;48.472;8.166;2023-02-28T01:24:21;12.35;;;3.40;;
54875;SDS011;40764;48.472;8.166;2023-02-28T01:30:21;6.95;;;3.00;;
54875;SDS011;40764;48.472;8.166;2023-02-28T01:36:23;6.18;;;3.35;;
54875;SDS011;40764;48.472;8.166;2023-02-28T01:42:24;4.32;;;2.80;;
54875;SDS011;40764;48.472;8.166;2023-02-28T01:48:25;13.55;;;3.50;;
54875;SDS011;40764;48.472;8.166;2023-02-28T01:54:32;8.55;;;4.07;;
54875;SDS011;40764;48.472;8.166;2023-02-28T02:00:34;7.47;;;3.15;;
54875;SDS011;40764;48.472;8.166;2023-02-28T02:06:39;8.07;;;3.83;;
54875;SDS011;40764;48.472;8.166;2023-02-28T02:43:56;8.70;;;3.80;;
54875;SDS011;40764;48.472;8.166;2023-02-28T02:50:05;6.68;;;3.42;;
54875;SDS011;40764;48.472;8.166;2023-02-28T02:56:12;8.27;;;3.83;;
54875;SDS011;40764;48.472;8.166;2023-02-28T03:02:14;6.55;;;4.00;;
54875;SDS011;40764;48.472;8.166;2023-02-28T03:08:17;6.63;;;3.58;;
54875;SDS011;40764;48.472;8.166;2023-02-28T03:20:31;7.28;;;4.00;;
54875;SDS011;40764;48.472;8.166;2023-02-28T03:26:52;10.15;;;4.60;;
54875;SDS011;40764;48.472;8.166;2023-02-28T03:33:14;8.63;;;4.72;;
54875;SDS011;40764;48.472;8.166;2023-02-28T03:39:24;7.57;;;4.15;;
54875;SDS011;40764;48.472;8.166;2023-02-28T03:45:30;7.90;;;4.20;;
54875;SDS011;40764;48.472;8.166;2023-02-28T03:51:36;12.85;;;5.53;;
54875;SDS011;40764;48.472;8.166;2023-02-28T04:03:40;6.93;;;4.45;;
54875;SDS011;40764;48.472;8.166;2023-02-28T04:09:41;9.43;;;5.27;;
54875;SDS011;40764;48.472;8.166;2023-02-28T04:15:41;7.17;;;4.43;;
54875;SDS011;40764;48.472;8.166;2023-02-28T04:21:43;10.10;;;5.40;;
54875;SDS011;40764;48.472;8.166;2023-02-28T04:27:45;8.75;;;5.25;;
54875;SDS011;40764;48.472;8.166;2023-02-28T04:33:45;9.75;;;5.53;;
54875;SDS011;40764;48.472;8.166;2023-02-28T04:39:46;14.63;;;6.43;;
54875;SDS011;40764;48.472;8.166;2023-02-28T04:45:46;11.15;;;5.28;;
54875;SDS011;40764;48.472;8.166;2023-02-28T04:51:46;11.93;;;5.60;;
54875;SDS011;40764;48.472;8.166;2023-02-28T04:57:47;14.60;;;6.37;;
54875;SDS011;40764;48.472;8.166;2023-02-28T05:03:48;8.53;;;5.20;;
54875;SDS011;40764;48.472;8.166;2023-02-28T05:09:49;10.43;;;5.82;;
54875;SDS011;40764;48.472;8.166;2023-02-28T05:15:49;11.48;;;5.70;;
54875;SDS011;40764;48.472;8.166;2023-02-28T05:21:51;9.90;;;5.47;;
54875;SDS011;40764;48.472;8.166;2023-02-28T05:27:53;10.57;;;5.65;;
54875;SDS011;40764;48.472;8.166;2023-02-28T05:33:54;9.90;;;5.65;;
54875;SDS011;40764;48.472;8.166;2023-02-28T05:39:54;12.53;;;5.90;;
54875;SDS011;40764;48.472;8.166;2023-02-28T05:45:54;13.82;;;6.30;;
54875;SDS011;40764;48.472;8.166;2023-02-28T05:51:54;12.68;;;6.22;;
54875;SDS011;40764;48.472;8.166;2023-02-28T05:57:55;12.32;;;5.85;;
54875;SDS011;40764;48.472;8.166;2023-02-28T06:03:55;13.97;;;7.17;;
54875;SDS011;40764;48.472;8.166;2023-02-28T06:09:56;13.57;;;6.13;;
54875;SDS011;40764;48.472;8.166;2023-02-28T06:15:56;11.45;;;6.30;;
54875;SDS011;40764;48.472;8.166;2023-02-28T06:22:00;11.52;;;6.43;;
54875;SDS011;40764;48.472;8.166;2023-02-28T06:28:00;16.77;;;8.23;;
54875;SDS011;40764;48.472;8.166;2023-02-28T06:34:00;16.08;;;6.78;;
54875;SDS011;40764;48.472;8.166;2023-02-28T06:40:01;14.60;;;7.57;;
54875;SDS011;40764;48.472;8.166;2023-02-28T06:52:03;14.23;;;7.07;;
54875;SDS011;40764;48.472;8.166;2023-02-28T06:58:04;16.83;;;6.97;;
54875;SDS011;40764;48.472;8.166;2023-02-28T07:04:14;11.85;;;7.60;;
54875;SDS011;40764;48.472;8.166;2023-02-28T07:10:14;17.53;;;7.30;;
54875;SDS011;40764;48.472;8.166;2023-02-28T07:16:16;13.40;;;7.40;;
54875;SDS011;40764;48.472;8.166;2023-02-28T07:22:17;16.17;;;7.53;;
54875;SDS011;40764;48.472;8.166;2023-02-28T07:28:18;20.20;;;8.13;;
54875;SDS011;40764;48.472;8.166;2023-02-28T07:34:18;15.18;;;7.05;;
54875;SDS011;40764;48.472;8.166;2023-02-28T07:40:19;16.70;;;7.43;;
54875;SDS011;40764;48.472;8.166;2023-02-28T07:46:20;14.73;;;8.50;;
54875;SDS011;40764;48.472;8.166;2023-02-28T07:52:21;20.50;;;8.67;;
54875;SDS011;40764;48.472;8.166;2023-02-28T07:58:23;15.98;;;8.07;;
54875;SDS011;40764;48.472;8.166;2023-02-28T08:04:25;16.50;;;7.78;;
54875;SDS011;40764;48.472;8.166;2023-02-28T08:10:26;13.05;;;7.85;;
54875;SDS011;40764;48.472;8.166;2023-02-28T08:16:26;17.23;;;8.82;;
54875;SDS011;40764;48.472;8.166;2023-02-28T08:22:26;16.88;;;9.18;;
54875;SDS011;40764;48.472;8.166;2023-02-28T08:28:26;19.40;;;9.00;;
54875;SDS011;40764;48.472;8.166;2023-02-28T08:34:27;18.02;;;9.23;;
54875;SDS011;40764;48.472;8.166;2023-02-28T08:40:27;19.52;;;9.93;;
54875;SDS011;40764;48.472;8.166;2023-02-28T08:46:27;14.93;;;8.75;;
54875;SDS011;40764;48.472;8.166;2023-02-28T08:52:28;15.77;;;9.33;;
54875;SDS011;40764;48.472;8.166;2023-02-28T08:58:28;19.20;;;8.80;;
54875;SDS011;40764;48.472;8.166;2023-02-28T09:04:29;24.03;;;11.00;;
54875;SDS011;40764;48.472;8.166;2023-02-28T09:10:30;20.23;;;10.55;;
54875;SDS011;40764;48.472;8.166;2023-02-28T09:16:31;19.85;;;9.23;;
54875;SDS011;40764;48.472;8.166;2023-02-28T09:22:32;17.95;;;9.65;;
54875;SDS011;40764;48.472;8.166;2023-02-28T09:28:32;17.88;;;8.73;;
54875;SDS011;40764;48.472;8.166;2023-02-28T09:34:33;20.57;;;9.80;;
54875;SDS011;40764;48.472;8.166;2023-02-28T09:40:47;23.05;;;10.65;;
54875;SDS011;40764;48.472;8.166;2023-02-28T09:46:53;21.20;;;10.43;;
54875;SDS011;40764;48.472;8.166;2023-02-28T09:52:59;59.38;;;19.98;;
54875;SDS011;40764;48.472;8.166;2023-02-28T09:59:18;40.28;;;15.60;;
54875;SDS011;40764;48.472;8.166;2023-02-28T10:05:33;27.65;;;13.35;;
54875;SDS011;40764;48.472;8.166;2023-02-28T10:11:35;18.92;;;10.38;;
54875;SDS011;40764;48.472;8.166;2023-02-28T10:17:39;19.83;;;9.98;;
54875;SDS011;40764;48.472;8.166;2023-02-28T10:23:42;20.38;;;10.40;;
54875;SDS011;40764;48.472;8.166;2023-02-28T10:29:46;21.60;;;10.45;;
54875;SDS011;40764;48.472;8.166;2023-02-28T10:35:48;22.85;;;11.35;;
54875;SDS011;40764;48.472;8.166;2023-02-28T10:41:49;43.77;;;19.50;;
54875;SDS011;40764;48.472;8.166;2023-02-28T10:47:51;22.35;;;11.63;;
54875;SDS011;40764;48.472;8.166;2023-02-28T10:53:57;20.70;;;10.25;;
54875;SDS011;40764;48.472;8.166;2023-02-28T11:00:17;23.87;;;11.93;;
54875;SDS011;40764;48.472;8.166;2023-02-28T11:06:22;20.60;;;10.98;;
54875;SDS011;40764;48.472;8.166;2023-02-28T11:12:31;21.02;;;11.40;;
54875;SDS011;40764;48.472;8.166;2023-02-28T11:18:50;24.67;;;10.85;;
54875;SDS011;40764;48.472;8.166;2023-02-28T11:24:55;22.65;;;11.10;;
54875;SDS011;40764;48.472;8.166;2023-02-28T11:31:17;18.23;;;10.57;;
54875;SDS011;40764;48.472;8.166;2023-02-28T11:37:19;23.50;;;11.90;;
54875;SDS011;40764;48.472;8.166;2023-02-28T11:55:39;25.85;;;11.55;;
54875;SDS011;40764;48.472;8.166;2023-02-28T12:02:00;22.40;;;11.98;;
54875;SDS011;40764;48.472;8.166;2023-02-28T12:08:47;27.85;;;11.88;;
54875;SDS011;40764;48.472;8.166;2023-02-28T12:27:32;21.15;;;11.30;;
54875;SDS011;40764;48.472;8.166;2023-02-28T12:33:36;20.27;;;11.20;;
54875;SDS011;40764;48.472;8.166;2023-02-28T12:39:44;19.95;;;11.32;;
54875;SDS011;40764;48.472;8.166;2023-02-28T12:45:54;20.60;;;10.40;;
54875;SDS011;40764;48.472;8.166;2023-02-28T12:51:57;20.10;;;11.00;;
54875;SDS011;40764;48.472;8.166;2023-02-28T13:10:44;20.88;;;11.32;;
54875;SDS011;40764;48.472;8.166;2023-02-28T13:23:35;20.33;;;10.65;;
54875;SDS011;40764;48.472;8.166;2023-02-28T13:29:58;18.45;;;9.75;;
54875;SDS011;40764;48.472;8.166;2023-02-28T13:48:30;19.83;;;11.18;;
54875;SDS011;40764;48.472;8.166;2023-02-28T13:54:45;20.00;;;9.97;;
54875;SDS011;40764;48.472;8.166;2023-02-28T14:07:07;17.60;;;10.20;;
54875;SDS011;40764;48.472;8.166;2023-02-28T14:19:26;18.77;;;10.35;;
54875;SDS011;40764;48.472;8.166;2023-02-28T14:25:33;21.42;;;9.88;;
54875;SDS011;40764;48.472;8.166;2023-02-28T14:38:42;20.20;;;10.73;;
54875;SDS011;40764;48.472;8.166;2023-02-28T14:44:53;23.80;;;10.57;;
54875;SDS011;40764;48.472;8.166;2023-02-28T14:50:57;27.95;;;11.45;;
54875;SDS011;40764;48.472;8.166;2023-02-28T14:56:58;22.20;;;11.40;;
54875;SDS011;40764;48.472;8.166;2023-02-28T15:03:00;21.83;;;11.23;;
54875;SDS011;40764;48.472;8.166;2023-02-28T15:09:10;19.92;;;9.93;;
54875;SDS011;40764;48.472;8.166;2023-02-28T15:15:15;23.58;;;11.57;;
54875;SDS011;40764;48.472;8.166;2023-02-28T15:21:18;23.98;;;11.40;;
54875;SDS011;40764;48.472;8.166;2023-02-28T15:27:22;21.08;;;11.07;;
54875;SDS011;40764;48.472;8.166;2023-02-28T15:33:33;21.77;;;11.10;;
54875;SDS011;40764;48.472;8.166;2023-02-28T15:39:33;27.10;;;12.63;;
54875;SDS011;40764;48.472;8.166;2023-02-28T15:45:51;20.80;;;10.68;;
54875;SDS011;40764;48.472;8.166;2023-02-28T15:51:56;24.30;;;12.10;;
54875;SDS011;40764;48.472;8.166;2023-02-28T15:58:00;24.92;;;12.40;;
54875;SDS011;40764;48.472;8.166;2023-02-28T16:04:03;27.25;;;12.80;;
54875;SDS011;40764;48.472;8.166;2023-02-28T16:10:15;23.27;;;12.85;;
54875;SDS011;40764;48.472;8.166;2023-02-28T16:16:19;18.07;;;11.40;;
54875;SDS011;40764;48.472;8.166;2023-02-28T16:22:22;19.88;;;11.68;;
54875;SDS011;40764;48.472;8.166;2023-02-28T16:28:24;20.67;;;11.70;;
54875;SDS011;40764;48.472;8.166;2023-02-28T16:34:31;26.08;;;14.57;;
54875;SDS011;40764;48.472;8.166;2023-02-28T16:40:33;23.80;;;12.43;;
54875;SDS011;40764;48.472;8.166;2023-02-28T16:46:35;24.00;;;13.13;;
54875;SDS011;40764;48.472;8.166;2023-02-28T16:52:36;23.23;;;13.00;;
54875;SDS011;40764;48.472;8.166;2023-02-28T16:58:36;26.73;;;12.10;;
54875;SDS011;40764;48.472;8.166;2023-02-28T17:04:37;17.63;;;9.13;;
54875;SDS011;40764;48.472;8.166;2023-02-28T17:10:37;39.55;;;21.20;;
54875;SDS011;40764;48.472;8.166;2023-02-28T17:16:37;22.35;;;12.68;;
54875;SDS011;40764;48.472;8.166;2023-02-28T17:22:40;18.17;;;10.13;;
54875;SDS011;40764;48.472;8.166;2023-02-28T17:28:40;30.57;;;14.77;;
54875;SDS011;40764;48.472;8.166;2023-02-28T17:34:41;36.73;;;19.27;;
54875;SDS011;40764;48.472;8.166;2023-02-28T17:40:41;27.87;;;14.97;;
54875;SDS011;40764;48.472;8.166;2023-02-28T17:46:43;31.60;;;17.10;;
54875;SDS011;40764;48.472;8.166;2023-02-28T17:52:45;20.85;;;12.88;;
54875;SDS011;40764;48.472;8.166;2023-02-28T17:58:46;31.33;;;16.37;;
54875;SDS011;40764;48.472;8.166;2023-02-28T18:04:47;31.35;;;13.90;;
54875;SDS011;40764;48.472;8.166;2023-02-28T18:10:48;56.03;;;21.33;;
54875;SDS011;40764;48.472;8.166;2023-02-28T18:16:48;34.13;;;16.70;;
54875;SDS011;40764;48.472;8.166;2023-02-28T18:22:50;48.20;;;18.42;;
54875;SDS011;40764;48.472;8.166;2023-02-28T18:28:50;100.17;;;31.60;;
54875;SDS011;40764;48.472;8.166;2023-02-28T18:34:51;62.37;;;23.30;;
54875;SDS011;40764;48.472;8.166;2023-02-28T18:40:52;95.27;;;29.73;;
54875;SDS011;40764;48.472;8.166;2023-02-28T18:46:55;29.65;;;15.43;;
54875;SDS011;40764;48.472;8.166;2023-02-28T18:52:55;32.60;;;14.15;;
54875;SDS011;40764;48.472;8.166;2023-02-28T18:58:57;27.63;;;13.88;;
54875;SDS011;40764;48.472;8.166;2023-02-28T19:04:57;37.00;;;17.30;;
54875;SDS011;40764;48.472;8.166;2023-02-28T19:10:57;44.25;;;19.02;;
54875;SDS011;40764;48.472;8.166;2023-02-28T19:16:58;59.30;;;23.20;;
54875;SDS011;40764;48.472;8.166;2023-02-28T19:22:58;46.67;;;20.67;;
54875;SDS011;40764;48.472;8.166;2023-02-28T19:29:00;48.73;;;19.37;;
54875;SDS011;40764;48.472;8.166;2023-02-28T19:35:02;70.90;;;25.90;;
54875;SDS011;40764;48.472;8.166;2023-02-28T19:41:04;70.57;;;25.40;;
54875;SDS011;40764;48.472;8.166;2023-02-28T19:47:07;53.83;;;18.55;;
54875;SDS011;40764;48.472;8.166;2023-02-28T19:53:08;52.70;;;21.97;;
54875;SDS011;40764;48.472;8.166;2023-02-28T19:59:08;59.08;;;22.52;;
54875;SDS011;40764;48.472;8.166;2023-02-28T20:05:08;45.20;;;18.50;;
54875;SDS011;40764;48.472;8.166;2023-02-28T20:11:13;46.73;;;20.50;;
54875;SDS011;40764;48.472;8.166;2023-02-28T20:17:15;49.55;;;19.60;;
54875;SDS011;40764;48.472;8.166;2023-02-28T20:23:16;49.70;;;18.43;;
54875;SDS011;40764;48.472;8.166;2023-02-28T20:29:16;55.53;;;22.63;;
54875;SDS011;40764;48.472;8.166;2023-02-28T20:35:16;54.80;;;23.17;;
54875;SDS011;40764;48.472;8.166;2023-02-28T20:41:17;49.15;;;21.55;;
54875;SDS011;40764;48.472;8.166;2023-02-28T20:47:18;69.83;;;29.57;;
54875;SDS011;40764;48.472;8.166;2023-02-28T20:53:18;60.40;;;22.57;;
54875;SDS011;40764;48.472;8.166;2023-02-28T20:59:19;60.90;;;23.53;;
54875;SDS011;40764;48.472;8.166;2023-02-28T21:05:21;43.60;;;20.65;;
54875;SDS011;40764;48.472;8.166;2023-02-28T21:11:23;55.83;;;22.40;;
54875;SDS011;40764;48.472;8.166;2023-02-28T21:17:26;63.88;;;26.20;;
54875;SDS011;40764;48.472;8.166;2023-02-28T21:23:27;71.72;;;26.45;;
54875;SDS011;40764;48.472;8.166;2023-02-28T21:29:28;68.33;;;26.73;;
54875;SDS011;40764;48.472;8.166;2023-02-28T21:35:28;65.20;;;24.07;;
54875;SDS011;40764;48.472;8.166;2023-02-28T21:41:29;46.70;;;19.83;;
54875;SDS011;40764;48.472;8.166;2023-02-28T21:47:29;54.83;;;21.37;;
54875;SDS011;40764;48.472;8.166;2023-02-28T21:53:30;39.37;;;18.00;;
54875;SDS011;40764;48.472;8.166;2023-02-28T21:59:31;60.20;;;19.80;;
54875;SDS011;40764;48.472;8.166;2023-02-28T22:05:32;51.77;;;20.23;;
54875;SDS011;40764;48.472;8.166;2023-02-28T22:11:32;50.93;;;21.37;;
54875;SDS011;40764;48.472;8.166;2023-02-28T22:17:35;43.90;;;19.73;;
54875;SDS011;40764;48.472;8.166;2023-02-28T22:23:36;44.70;;;17.67;;
54875;SDS011;40764;48.472;8.166;2023-02-28T22:29:37;40.83;;;18.20;;
54875;SDS011;40764;48.472;8.166;2023-02-28T22:35:38;48.83;;;18.90;;
54875;SDS011;40764;48.472;8.166;2023-02-28T22:41:38;245.48;;;83.55;;
54875;SDS011;40764;48.472;8.166;2023-02-28T22:47:39;52.50;;;21.53;;
54875;SDS011;40764;48.472;8.166;2023-02-28T22:53:40;46.97;;;18.60;;
54875;SDS011;40764;48.472;8.166;2023-02-28T22:59:42;38.17;;;17.08;;
54875;SDS011;40764;48.472;8.166;2023-02-28T23:05:42;40.23;;;16.60;;
54875;SDS011;40764;48.472;8.166;2023-02-28T23:11:44;39.58;;;16.17;;
54875;SDS011;40764;48.472;8.166;2023-02-28T23:17:46;42.05;;;15.32;;
54875;SDS011;40764;48.472;8.166;2023-02-28T23:23:48;46.30;;;19.58;;
54875;SDS011;40764;48.472;8.166;2023-02-28T23:29:48;43.77;;;17.90;;
54875;SDS011;40764;48.472;8.166;2023-02-28T23:35:49;37.57;;;16.03;;
54875;SDS011;40764;48.472;8.166;2023-02-28T23:41:49;33.57;;;15.63;;
54875;SDS011;40764;48.472;8.166;2023-02-28T23:47:50;33.83;;;16.10;;
54875;SDS011;40764;48.472;8.166;2023-02-28T23:53:51;34.17;;;14.83;;
54875;SDS011;40764;48.472;8.166;2023-02-28T23:59:51;33.75;;;13.45;;
